Time;durP1;ratioP1;P1;durP2;ratioP2;P2;SDS_P1;SDS_P2;PMS_P1;PMS_P2;Temp;Humidity;BMP_temperature;BMP_pressure;BME280_temperature;BME280_humidity;BME280_pressure;Samples;Min_cycle;Max_cycle;Signal;HPM_P1;HPM_P2
2022/02/25 00:01:25;;;;;;;3.10;1.87;;;5.90;99.40;;;;;;4919415;29;20545;-90
2022/02/25 00:03:52;;;;;;;2.60;1.03;;;5.90;99.00;;;;;;4927712;29;20477;-90
2022/02/25 00:06:21;;;;;;;1.60;0.80;;;5.90;98.70;;;;;;4932387;29;20464;-91
2022/02/25 00:08:48;;;;;;;4.23;1.43;;;5.90;98.20;;;;;;4909500;29;20490;-90
2022/02/25 00:11:16;;;;;;;3.63;1.17;;;5.90;98.10;;;;;;4922336;29;20441;-91
2022/02/25 00:13:42;;;;;;;1.73;1.60;;;5.90;98.30;;;;;;4920472;29;20471;-91
2022/02/25 00:16:09;;;;;;;1.67;0.90;;;5.90;98.10;;;;;;4923785;29;20462;-90
2022/02/25 00:18:39;;;;;;;4.50;1.23;;;5.90;98.30;;;;;;4915907;29;20447;-89
2022/02/25 00:21:09;;;;;;;4.70;1.40;;;6.00;98.10;;;;;;4902910;29;20470;-91
2022/02/25 00:23:36;;;;;;;4.33;1.30;;;5.90;98.20;;;;;;4903715;29;21005;-90
2022/02/25 00:26:02;;;;;;;2.13;1.00;;;5.90;98.10;;;;;;4911118;29;20451;-90
2022/02/25 00:28:30;;;;;;;2.10;1.03;;;5.80;98.20;;;;;;4899963;29;20491;-89
2022/02/25 00:30:57;;;;;;;1.10;0.90;;;5.80;97.90;;;;;;4911743;29;21108;-89
2022/02/25 00:33:24;;;;;;;1.53;1.10;;;5.70;98.00;;;;;;4900703;29;20486;-89
2022/02/25 00:35:51;;;;;;;1.60;0.97;;;5.70;97.80;;;;;;4902850;29;20447;-88
2022/02/25 00:38:18;;;;;;;2.30;1.07;;;5.70;97.80;;;;;;4928247;29;20983;-89
2022/02/25 00:40:45;;;;;;;2.63;1.00;;;5.60;97.50;;;;;;4919683;29;20455;-89
2022/02/25 00:45:47;;;;;;;3.70;1.23;;;5.50;97.50;;;;;;4917721;29;20493;-92
2022/02/25 00:48:14;;;;;;;4.60;1.50;;;5.50;98.10;;;;;;4908708;29;20547;-93
2022/02/25 00:50:41;;;;;;;2.73;1.10;;;5.50;98.00;;;;;;4921717;29;20458;-93
2022/02/25 00:53:08;;;;;;;2.47;1.20;;;5.50;98.20;;;;;;4922890;29;20463;-93
2022/02/25 00:55:35;;;;;;;3.90;1.40;;;5.50;97.60;;;;;;4915422;29;20438;-92
2022/02/25 00:58:03;;;;;;;1.70;1.20;;;5.60;97.70;;;;;;4920912;29;20439;-93
2022/02/25 01:00:31;;;;;;;2.80;1.57;;;5.60;97.70;;;;;;4907109;29;20550;-92
2022/02/25 01:02:59;;;;;;;2.90;1.20;;;5.60;97.50;;;;;;4909249;29;20560;-91
2022/02/25 01:05:27;;;;;;;3.57;1.60;;;5.50;97.60;;;;;;4904937;29;20535;-93
2022/02/25 01:07:54;;;;;;;2.33;1.27;;;5.50;97.80;;;;;;4904925;29;20489;-93
2022/02/25 01:10:22;;;;;;;3.23;1.43;;;5.40;97.70;;;;;;4913379;29;20434;-92
2022/02/25 01:12:49;;;;;;;3.43;1.60;;;5.40;97.80;;;;;;4924192;29;20439;-92
2022/02/25 01:15:17;;;;;;;5.50;1.77;;;5.30;98.00;;;;;;4920486;29;20495;-92
2022/02/25 01:17:45;;;;;;;2.43;1.30;;;5.20;98.00;;;;;;4915226;29;20470;-93
2022/02/25 01:20:15;;;;;;;3.70;1.43;;;5.10;98.00;;;;;;4923320;29;20475;-94
2022/02/25 01:22:44;;;;;;;2.20;1.87;;;5.10;97.70;;;;;;4906750;29;20485;-92
2022/02/25 01:25:23;;;;;;;1.87;1.20;;;5.10;98.00;;;;;;5153434;23;20569;-92
2022/02/25 01:27:54;;;;;;;2.00;1.80;;;5.10;97.80;;;;;;4961529;28;20488;-92
2022/02/25 01:33:12;;;;;;;1.80;1.40;;;5.10;98.00;;;;;;5123513;23;20474;-92
2022/02/25 01:36:00;;;;;;;2.27;1.97;;;5.00;97.60;;;;;;4977368;23;20496;-91
2022/02/25 01:38:44;;;;;;;3.83;1.60;;;5.00;97.70;;;;;;4942016;29;20463;-91
2022/02/25 01:41:12;;;;;;;2.43;1.10;;;4.90;97.70;;;;;;4942874;29;20458;-92
2022/02/25 01:46:16;;;;;;;1.90;1.60;;;4.90;97.50;;;;;;4948049;28;20469;-92
2022/02/25 01:48:43;;;;;;;5.30;1.90;;;4.70;97.50;;;;;;4945115;29;20477;-92
2022/02/25 01:51:12;;;;;;;1.90;1.57;;;4.70;97.70;;;;;;4931773;29;20986;-91
2022/02/25 01:53:39;;;;;;;2.30;1.40;;;4.70;97.30;;;;;;4935989;29;20480;-92
2022/02/25 01:56:06;;;;;;;4.40;1.50;;;4.70;97.50;;;;;;4911627;29;20452;-92
2022/02/25 01:58:33;;;;;;;2.37;1.37;;;4.70;97.70;;;;;;4925670;29;20459;-92
2022/02/25 02:01:03;;;;;;;2.17;1.27;;;4.60;97.90;;;;;;4942452;29;20553;-92
2022/02/25 02:03:30;;;;;;;1.67;1.30;;;4.50;97.80;;;;;;4935183;29;20479;-92
2022/02/25 02:05:57;;;;;;;2.27;1.83;;;4.40;98.30;;;;;;4909711;29;20456;-92
2022/02/25 02:08:25;;;;;;;1.67;1.30;;;4.40;98.00;;;;;;4907284;29;20991;-92
2022/02/25 02:10:53;;;;;;;2.37;1.10;;;4.40;97.70;;;;;;4897592;29;20446;-91
2022/02/25 02:13:20;;;;;;;4.27;1.50;;;4.40;98.20;;;;;;4921285;29;20475;-91
2022/02/25 02:15:47;;;;;;;3.00;1.37;;;4.30;98.10;;;;;;4917510;29;20555;-93
2022/02/25 02:18:14;;;;;;;3.10;1.60;;;4.30;98.00;;;;;;4930860;29;20431;-91
2022/02/25 02:20:41;;;;;;;3.10;1.20;;;4.30;97.70;;;;;;4941207;29;20439;-92
2022/02/25 02:23:10;;;;;;;2.60;1.03;;;4.20;97.60;;;;;;4929704;29;20486;-92
2022/02/25 02:25:37;;;;;;;1.90;1.10;;;4.20;97.80;;;;;;4916436;29;20442;-91
2022/02/25 02:28:20;;;;;;;1.93;1.23;;;4.20;97.30;;;;;;4926349;29;20492;-92
2022/02/25 02:30:48;;;;;;;1.47;0.90;;;4.20;97.20;;;;;;4918753;29;20469;-92
2022/02/25 02:33:15;;;;;;;2.97;1.37;;;4.20;97.40;;;;;;4917740;29;20453;-93
2022/02/25 02:35:42;;;;;;;3.83;1.23;;;4.10;97.50;;;;;;4911174;29;20457;-92
2022/02/25 02:38:11;;;;;;;2.37;1.20;;;4.00;97.10;;;;;;4919520;29;20882;-92
2022/02/25 02:40:38;;;;;;;2.90;1.20;;;4.00;97.30;;;;;;4922606;29;20455;-93
2022/02/25 02:43:07;;;;;;;1.90;1.50;;;4.10;96.90;;;;;;4912503;29;20456;-93
2022/02/25 02:45:34;;;;;;;2.10;0.93;;;4.10;96.60;;;;;;4920992;29;20488;-93
2022/02/25 02:48:01;;;;;;;3.40;1.60;;;4.10;96.60;;;;;;4913952;29;20489;-92
2022/02/25 02:50:28;;;;;;;1.37;1.07;;;4.10;96.70;;;;;;4914618;29;20448;-92
2022/02/25 02:52:55;;;;;;;1.80;1.13;;;4.00;97.30;;;;;;4920508;29;20456;-92
2022/02/25 02:55:23;;;;;;;4.90;2.30;;;4.00;96.80;;;;;;4939470;29;20485;-92
2022/02/25 02:57:51;;;;;;;4.07;1.67;;;4.10;96.70;;;;;;4941958;29;20460;-92
2022/02/25 03:00:19;;;;;;;4.17;1.27;;;4.00;97.00;;;;;;4934144;29;20444;-92
2022/02/25 03:02:46;;;;;;;3.30;1.40;;;4.10;96.90;;;;;;4918073;29;20459;-92
2022/02/25 03:05:13;;;;;;;5.37;1.50;;;4.10;97.10;;;;;;4919435;29;20485;-92
2022/02/25 03:07:40;;;;;;;5.90;1.33;;;4.00;96.60;;;;;;4920388;29;20492;-92
2022/02/25 03:10:07;;;;;;;2.23;1.47;;;4.00;96.90;;;;;;4922000;29;20455;-92
2022/02/25 03:12:36;;;;;;;5.63;1.60;;;4.00;96.80;;;;;;4926126;29;20513;-92
2022/02/25 03:15:04;;;;;;;4.53;1.13;;;3.90;97.10;;;;;;4917014;29;20480;-92
2022/02/25 03:17:32;;;;;;;6.00;1.90;;;3.80;97.50;;;;;;4911386;29;20461;-93
2022/02/25 03:19:59;;;;;;;3.17;1.27;;;3.90;97.40;;;;;;4930876;29;20806;-92
2022/02/25 03:22:27;;;;;;;1.80;1.50;;;3.90;97.40;;;;;;4919480;29;20436;-93
2022/02/25 03:24:54;;;;;;;3.50;1.30;;;3.90;97.80;;;;;;4933515;29;20468;-92
2022/02/25 03:27:21;;;;;;;2.47;1.30;;;3.90;97.90;;;;;;4903710;29;20543;-93
2022/02/25 03:29:49;;;;;;;3.37;1.30;;;3.90;97.60;;;;;;4908092;29;20555;-93
2022/02/25 03:32:16;;;;;;;3.27;1.30;;;3.90;97.60;;;;;;4921295;29;20495;-93
2022/02/25 03:34:43;;;;;;;2.40;1.50;;;3.90;98.10;;;;;;4920805;29;20482;-93
2022/02/25 03:37:10;;;;;;;2.93;1.40;;;3.90;98.10;;;;;;4912626;29;20462;-92
2022/02/25 03:39:38;;;;;;;4.67;1.60;;;3.90;98.20;;;;;;4910332;29;20444;-93
2022/02/25 03:42:05;;;;;;;6.10;1.87;;;3.80;98.30;;;;;;4929312;29;20452;-91
2022/02/25 03:44:32;;;;;;;4.50;1.40;;;3.90;98.40;;;;;;4917867;29;20489;-93
2022/02/25 03:47:01;;;;;;;2.53;1.10;;;3.90;98.30;;;;;;4920344;29;20457;-93
2022/02/25 03:49:28;;;;;;;4.40;1.30;;;4.00;97.90;;;;;;4935063;29;20547;-91
2022/02/25 03:51:55;;;;;;;9.30;1.77;;;3.90;97.90;;;;;;4921947;29;20522;-92
2022/02/25 03:54:22;;;;;;;3.03;1.47;;;4.00;97.80;;;;;;4919134;29;20545;-94
2022/02/25 03:56:49;;;;;;;3.53;1.93;;;4.00;97.70;;;;;;4916170;29;20468;-93
2022/02/25 03:59:16;;;;;;;1.67;1.20;;;4.00;97.60;;;;;;4908053;29;20556;-92
2022/02/25 04:01:51;;;;;;;3.63;1.60;;;3.90;97.50;;;;;;4910829;29;20459;-92
2022/02/25 04:04:20;;;;;;;4.83;1.20;;;3.90;98.00;;;;;;4920240;29;20901;-92
2022/02/25 04:06:47;;;;;;;6.00;1.90;;;3.90;97.80;;;;;;4910826;29;20465;-94
2022/02/25 04:09:18;;;;;;;3.10;1.20;;;3.90;97.70;;;;;;4925815;29;20485;-92
2022/02/25 04:11:45;;;;;;;3.77;1.47;;;3.90;97.70;;;;;;4918483;29;20539;-93
2022/02/25 04:14:13;;;;;;;7.10;1.80;;;3.90;97.40;;;;;;4912015;29;20473;-93
2022/02/25 04:16:43;;;;;;;5.63;1.10;;;4.00;97.40;;;;;;4932041;29;20446;-91
2022/02/25 04:19:10;;;;;;;5.53;1.67;;;4.00;97.30;;;;;;4922580;29;20454;-91
2022/02/25 04:21:39;;;;;;;4.20;2.53;;;4.00;97.30;;;;;;4926932;29;20448;-91
2022/02/25 04:24:06;;;;;;;4.50;1.83;;;4.00;97.40;;;;;;4929315;29;20549;-92
2022/02/25 04:26:33;;;;;;;1.87;1.10;;;4.00;97.30;;;;;;4913176;29;20461;-92
2022/02/25 04:29:00;;;;;;;4.10;2.20;;;4.10;97.00;;;;;;4921307;29;20927;-92
2022/02/25 04:31:27;;;;;;;1.77;1.15;;;4.10;96.90;;;;;;4929297;29;20455;-92
2022/02/25 04:33:54;;;;;;;4.10;1.00;;;4.20;96.90;;;;;;4912368;29;20707;-92
2022/02/25 04:36:22;;;;;;;4.13;1.70;;;4.20;96.90;;;;;;4922072;29;20458;-92
2022/02/25 04:38:54;;;;;;;6.73;1.73;;;4.20;96.90;;;;;;4916749;29;20850;-93
2022/02/25 04:41:22;;;;;;;6.53;1.70;;;4.10;96.80;;;;;;4912464;29;20498;-92
2022/02/25 04:43:50;;;;;;;4.20;1.47;;;4.10;96.80;;;;;;4919466;29;20470;-93
2022/02/25 04:46:18;;;;;;;6.80;1.27;;;4.00;96.90;;;;;;4920213;29;20924;-93
2022/02/25 04:48:48;;;;;;;3.63;1.40;;;4.00;96.90;;;;;;4930956;29;20498;-93
2022/02/25 04:51:16;;;;;;;4.90;1.70;;;4.00;96.70;;;;;;4927240;29;20459;-93
2022/02/25 04:53:47;;;;;;;3.73;1.53;;;4.00;97.00;;;;;;4911649;29;20582;-93
2022/02/25 04:56:16;;;;;;;5.30;1.60;;;3.90;97.40;;;;;;4915085;29;20545;-92
2022/02/25 04:58:44;;;;;;;4.00;1.30;;;4.00;97.00;;;;;;4914875;29;20519;-92
2022/02/25 05:01:11;;;;;;;10.67;1.80;;;4.10;96.70;;;;;;4923951;29;20450;-92
2022/02/25 05:03:38;;;;;;;4.57;1.30;;;4.20;96.60;;;;;;4950347;23;20521;-92
2022/02/25 05:06:05;;;;;;;1.80;1.10;;;4.20;96.60;;;;;;4958269;28;20454;-93
2022/02/25 05:08:32;;;;;;;3.33;1.93;;;4.10;97.00;;;;;;4972337;28;20522;-92
2022/02/25 05:10:59;;;;;;;3.33;1.40;;;4.10;97.10;;;;;;4970987;28;20448;-92
2022/02/25 05:13:28;;;;;;;7.47;1.53;;;4.10;97.10;;;;;;4948587;28;20454;-92
2022/02/25 05:21:25;;;;;;;3.07;1.40;;;4.10;96.80;;;;;;4961270;29;20412;-92
2022/02/25 05:23:52;;;;;;;4.47;1.53;;;4.10;97.00;;;;;;4973809;28;20475;-93
2022/02/25 05:26:19;;;;;;;3.90;1.23;;;4.20;96.80;;;;;;4981397;28;20467;-94
2022/02/25 05:29:03;;;;;;;2.53;1.40;;;4.30;96.50;;;;;;4977908;28;20498;-92
2022/02/25 05:31:30;;;;;;;3.63;1.30;;;4.20;96.60;;;;;;4974213;28;20455;-94
2022/02/25 05:34:00;;;;;;;4.83;1.77;;;4.30;96.60;;;;;;4981013;28;20469;-92
2022/02/25 05:36:28;;;;;;;3.23;1.33;;;4.30;96.70;;;;;;4957216;28;20541;-93
2022/02/25 05:38:55;;;;;;;6.17;1.60;;;4.30;96.60;;;;;;4946177;29;20963;-93
2022/02/25 05:41:23;;;;;;;3.77;1.80;;;4.30;96.30;;;;;;4944916;29;20465;-93
2022/02/25 05:43:51;;;;;;;13.33;1.87;;;4.30;96.30;;;;;;4953303;29;20467;-92
2022/02/25 05:46:19;;;;;;;4.50;1.40;;;4.30;96.50;;;;;;4980359;28;20475;-90
2022/02/25 05:48:47;;;;;;;6.70;1.97;;;4.30;96.40;;;;;;4978726;28;20603;-92
2022/02/25 05:51:14;;;;;;;4.93;1.60;;;4.30;96.10;;;;;;4971533;29;20463;-93
2022/02/25 05:53:42;;;;;;;6.30;2.10;;;4.30;96.30;;;;;;4965842;28;20552;-93
2022/02/25 05:56:09;;;;;;;5.50;1.50;;;4.40;96.60;;;;;;4951040;29;20469;-93
2022/02/25 05:58:39;;;;;;;3.70;1.27;;;4.40;96.40;;;;;;4959786;29;20456;-93
2022/02/25 06:01:06;;;;;;;7.20;2.03;;;4.50;96.20;;;;;;4961339;29;20453;-93
2022/02/25 06:03:35;;;;;;;4.00;2.47;;;4.60;96.30;;;;;;4968144;28;20523;-92
2022/02/25 06:06:02;;;;;;;3.40;1.27;;;4.50;96.50;;;;;;4943106;29;20489;-93
2022/02/25 06:08:29;;;;;;;4.13;1.60;;;4.40;96.60;;;;;;4954475;28;20460;-92
2022/02/25 06:10:56;;;;;;;7.67;2.03;;;4.40;97.00;;;;;;4963846;29;20447;-92
2022/02/25 06:31:46;;;;;;;7.30;1.97;;;4.00;98.20;;;;;;4921927;29;20468;-92
2022/02/25 06:34:13;;;;;;;7.32;1.98;;;4.00;98.20;;;;;;5039451;23;20498;-92
2022/02/25 06:36:41;;;;;;;3.23;1.40;;;4.00;98.50;;;;;;4952266;29;20192;-93
2022/02/25 06:41:41;;;;;;;4.60;3.03;;;4.00;98.10;;;;;;4917807;29;20280;-92
2022/02/25 06:44:08;;;;;;;7.00;2.07;;;3.90;98.40;;;;;;4939424;23;20667;-85
2022/02/25 06:46:35;;;;;;;3.43;1.90;;;3.80;98.40;;;;;;4934090;29;20450;-87
2022/02/25 06:49:04;;;;;;;3.75;1.75;;;3.80;99.00;;;;;;4929180;29;20854;-87
2022/02/25 06:51:31;;;;;;;2.10;1.80;;;3.80;98.80;;;;;;4918421;29;20607;-85
2022/02/25 06:53:58;;;;;;;3.27;1.83;;;3.80;98.70;;;;;;4916861;29;20488;-87
2022/02/25 06:56:25;;;;;;;4.83;2.23;;;3.80;98.80;;;;;;4911645;29;20460;-87
2022/02/25 06:58:51;;;;;;;9.20;2.17;;;3.80;98.90;;;;;;4916513;29;20466;-87
2022/02/25 07:01:18;;;;;;;5.70;2.10;;;3.90;99.00;;;;;;4917245;29;20440;-87
2022/02/25 07:03:45;;;;;;;5.63;2.57;;;3.80;99.20;;;;;;4916733;29;20876;-88
2022/02/25 07:06:13;;;;;;;7.87;2.07;;;3.80;99.10;;;;;;4905603;29;20461;-88
2022/02/25 07:08:40;;;;;;;7.13;2.00;;;3.90;99.10;;;;;;4898785;29;20501;-87
2022/02/25 07:11:06;;;;;;;5.80;1.67;;;4.00;99.10;;;;;;4904277;29;20463;-87
2022/02/25 07:13:33;;;;;;;5.37;2.40;;;4.10;98.70;;;;;;4917184;29;20595;-88
2022/02/25 07:16:00;;;;;;;9.43;2.90;;;4.20;98.60;;;;;;4916249;29;20806;-87
2022/02/25 07:18:27;;;;;;;9.50;2.20;;;4.30;98.20;;;;;;4900142;29;20473;-87
2022/02/25 07:20:54;;;;;;;6.65;1.92;;;4.30;98.10;;;;;;4926316;29;20460;-87
2022/02/25 07:23:22;;;;;;;6.80;2.13;;;4.40;98.10;;;;;;4932848;29;20209;-88
2022/02/25 07:25:48;;;;;;;4.33;2.40;;;4.40;97.80;;;;;;4925529;29;20472;-87
2022/02/25 07:28:15;;;;;;;4.63;2.13;;;4.40;97.80;;;;;;4928460;29;20451;-87
2022/02/25 07:30:42;;;;;;;6.13;1.90;;;4.40;97.70;;;;;;4919406;29;20457;-87
2022/02/25 07:33:08;;;;;;;6.70;1.83;;;4.50;97.60;;;;;;4905468;29;20453;-88
2022/02/25 07:35:35;;;;;;;10.23;2.20;;;4.50;97.50;;;;;;4898669;29;20831;-88
2022/02/25 07:38:02;;;;;;;5.73;2.20;;;4.50;97.40;;;;;;4900046;29;20474;-88
2022/02/25 07:40:31;;;;;;;6.33;2.47;;;4.60;97.50;;;;;;4909461;29;20448;-88
2022/02/25 07:42:57;;;;;;;3.33;1.97;;;4.60;97.20;;;;;;4917635;29;20455;-87
2022/02/25 07:45:25;;;;;;;1.77;1.20;;;4.70;97.20;;;;;;4915697;29;20544;-88
2022/02/25 07:47:52;;;;;;;4.43;2.13;;;4.70;97.00;;;;;;4917784;29;20449;-88
2022/02/25 07:50:19;;;;;;;4.77;2.83;;;4.80;96.70;;;;;;4917526;29;20494;-89
2022/02/25 07:52:47;;;;;;;7.43;2.90;;;4.80;96.60;;;;;;4918140;29;20480;-88
2022/02/25 07:55:14;;;;;;;7.60;2.10;;;4.90;96.70;;;;;;4912269;29;20474;-87
2022/02/25 07:57:43;;;;;;;8.77;2.97;;;5.00;96.30;;;;;;4898491;29;20482;-88
2022/02/25 08:00:15;;;;;;;8.97;2.77;;;5.10;96.20;;;;;;4914111;29;20509;-88
2022/02/25 08:02:42;;;;;;;5.10;2.07;;;5.10;96.10;;;;;;4922564;29;20914;-87
2022/02/25 08:05:09;;;;;;;7.80;2.00;;;5.20;95.90;;;;;;4907017;29;20481;-87
2022/02/25 08:07:36;;;;;;;8.17;1.73;;;5.30;95.50;;;;;;4921442;29;20804;-87
2022/02/25 08:10:03;;;;;;;5.77;2.17;;;5.40;95.50;;;;;;4912885;29;20487;-87
2022/02/25 08:12:30;;;;;;;8.37;1.70;;;5.40;95.30;;;;;;4902416;29;20462;-87
2022/02/25 08:14:58;;;;;;;4.07;1.70;;;5.60;95.70;;;;;;4903745;29;20521;-88
2022/02/25 08:17:25;;;;;;;8.60;2.27;;;5.60;94.60;;;;;;4904851;29;20465;-87
2022/02/25 08:19:51;;;;;;;6.97;3.13;;;5.70;94.10;;;;;;4907109;29;20495;-88
2022/02/25 08:22:20;;;;;;;6.57;2.40;;;5.90;93.90;;;;;;4903753;29;20463;-88
2022/02/25 08:24:47;;;;;;;7.40;2.73;;;6.10;93.20;;;;;;4913665;29;20514;-88
2022/02/25 08:27:14;;;;;;;8.10;3.10;;;6.30;92.50;;;;;;4929282;29;20465;-86
2022/02/25 08:29:41;;;;;;;5.30;1.90;;;6.90;91.90;;;;;;4941102;29;20486;-87
2022/02/25 08:32:10;;;;;;;5.53;1.87;;;7.00;90.70;;;;;;4920358;29;20455;-87
2022/02/25 08:34:36;;;;;;;11.97;2.43;;;7.30;90.80;;;;;;4905156;29;20475;-88
2022/02/25 08:37:04;;;;;;;4.13;1.63;;;8.30;89.30;;;;;;4905555;29;20827;-88
2022/02/25 08:39:30;;;;;;;9.03;2.67;;;8.60;86.70;;;;;;4905548;29;20451;-88
2022/02/25 08:41:57;;;;;;;8.60;3.20;;;9.40;85.30;;;;;;4904879;29;20451;-88
2022/02/25 08:44:24;;;;;;;6.30;2.50;;;10.10;81.20;;;;;;4904727;29;20487;-88
2022/02/25 08:46:51;;;;;;;5.87;1.80;;;10.70;76.70;;;;;;4912603;29;20461;-88
2022/02/25 08:49:19;;;;;;;4.90;2.07;;;10.00;74.10;;;;;;4925057;29;20482;-88
2022/02/25 08:51:47;;;;;;;8.70;2.80;;;9.60;77.70;;;;;;4909437;29;20456;-88
2022/02/25 08:54:16;;;;;;;7.67;2.20;;;10.10;77.30;;;;;;4907653;29;20471;-88
2022/02/25 08:56:43;;;;;;;7.57;2.93;;;10.20;76.70;;;;;;4925656;29;20462;-87
2022/02/25 08:59:10;;;;;;;9.50;2.47;;;10.10;76.50;;;;;;4927128;29;20455;-88
2022/02/25 09:01:36;;;;;;;8.00;1.70;;;10.10;75.10;;;;;;4913672;29;20479;-87
2022/02/25 09:04:03;;;;;;;6.57;2.40;;;9.90;76.30;;;;;;4905419;29;20480;-86
2022/02/25 09:06:32;;;;;;;2.50;1.40;;;9.70;76.50;;;;;;4923094;29;21095;-88
2022/02/25 09:08:59;;;;;;;8.50;2.07;;;10.10;76.00;;;;;;4919384;29;20553;-87
2022/02/25 09:11:26;;;;;;;3.73;2.33;;;9.60;75.10;;;;;;4917524;29;20459;-88
2022/02/25 09:13:53;;;;;;;5.70;2.17;;;10.00;73.90;;;;;;4920714;29;20508;-88
2022/02/25 09:16:19;;;;;;;4.33;1.73;;;10.00;71.90;;;;;;4916672;29;20451;-87
2022/02/25 09:18:46;;;;;;;4.47;2.67;;;9.80;73.90;;;;;;4919389;29;20468;-86
2022/02/25 09:21:13;;;;;;;12.67;2.50;;;9.40;73.80;;;;;;4930518;29;20473;-86
2022/02/25 09:23:41;;;;;;;2.53;1.30;;;8.90;75.90;;;;;;4910187;29;20552;-87
2022/02/25 09:26:08;;;;;;;5.60;2.43;;;8.70;76.40;;;;;;4913208;29;20886;-82
2022/02/25 09:28:34;;;;;;;6.57;2.63;;;8.90;76.60;;;;;;4910766;29;20452;-83
2022/02/25 09:31:01;;;;;;;5.60;1.70;;;8.90;75.80;;;;;;4928262;29;20498;-83
2022/02/25 09:33:28;;;;;;;6.27;2.33;;;8.70;77.50;;;;;;4919994;29;20461;-82
2022/02/25 09:35:54;;;;;;;4.17;1.90;;;8.70;76.10;;;;;;4919775;29;20471;-87
2022/02/25 09:38:21;;;;;;;4.80;2.77;;;8.90;75.90;;;;;;4917684;29;20446;-87
2022/02/25 09:40:49;;;;;;;3.27;1.70;;;9.70;77.60;;;;;;4919892;29;20451;-87
2022/02/25 09:43:16;;;;;;;8.77;1.60;;;11.60;72.10;;;;;;4903925;29;20815;-87
2022/02/25 09:45:43;;;;;;;3.93;1.70;;;12.60;69.00;;;;;;4900124;29;20490;-87
2022/02/25 09:48:12;;;;;;;5.33;1.50;;;12.90;64.20;;;;;;4903568;29;20828;-87
2022/02/25 09:50:40;;;;;;;6.77;2.70;;;12.30;62.30;;;;;;4899164;29;20495;-87
2022/02/25 09:53:06;;;;;;;7.90;1.97;;;12.40;63.00;;;;;;4902531;29;20488;-88
2022/02/25 09:55:35;;;;;;;4.80;1.97;;;12.40;62.20;;;;;;4899202;29;20478;-85
2022/02/25 09:58:05;;;;;;;7.33;2.13;;;12.70;63.30;;;;;;4913122;29;20474;-87
2022/02/25 10:00:32;;;;;;;4.50;1.50;;;12.40;62.50;;;;;;4916070;29;20554;-86
2022/02/25 10:03:08;;;;;;;3.30;1.60;;;12.00;60.60;;;;;;4902487;29;20837;-86
2022/02/25 10:05:36;;;;;;;6.67;1.67;;;11.80;62.30;;;;;;4908162;29;20486;-86
2022/02/25 10:08:11;;;;;;;4.47;2.27;;;11.60;61.90;;;;;;4917698;29;20459;-86
2022/02/25 10:10:43;;;;;;;4.10;1.30;;;11.80;61.80;;;;;;4919014;29;20486;-86
2022/02/25 10:13:13;;;;;;;4.93;1.90;;;12.70;59.00;;;;;;4918257;29;20965;-86
2022/02/25 10:15:42;;;;;;;6.53;1.50;;;12.10;56.80;;;;;;4916730;29;20496;-86
2022/02/25 10:18:12;;;;;;;4.37;1.87;;;11.80;58.50;;;;;;4918688;29;20945;-86
2022/02/25 10:20:40;;;;;;;3.17;1.10;;;12.80;59.40;;;;;;4923161;29;20446;-87
2022/02/25 10:23:22;;;;;;;4.60;1.87;;;12.30;56.70;;;;;;4921090;29;20452;-85
2022/02/25 10:25:49;;;;;;;3.03;1.63;;;12.30;58.90;;;;;;4911037;29;20495;-85
2022/02/25 10:28:32;;;;;;;4.73;1.60;;;12.50;58.30;;;;;;4911668;29;20454;-86
2022/02/25 10:31:19;;;;;;;6.93;2.90;;;12.00;57.60;;;;;;4916871;29;20495;-86
2022/02/25 10:33:46;;;;;;;4.07;1.27;;;10.40;58.20;;;;;;4921289;29;20495;-86
2022/02/25 10:36:13;;;;;;;5.03;2.13;;;11.70;59.70;;;;;;4913524;29;20552;-86
2022/02/25 10:38:39;;;;;;;2.77;1.80;;;13.90;57.40;;;;;;4918803;29;20461;-86
2022/02/25 10:41:06;;;;;;;3.20;1.90;;;13.80;54.00;;;;;;4899282;29;20448;-86
2022/02/25 10:43:34;;;;;;;9.03;3.00;;;14.60;54.50;;;;;;4898400;29;20453;-86
2022/02/25 10:46:11;;;;;;;2.87;1.60;;;15.10;51.40;;;;;;4898131;29;20972;-86
2022/02/25 10:48:38;;;;;;;6.53;1.80;;;14.10;52.50;;;;;;4898323;29;20456;-86
2022/02/25 10:51:06;;;;;;;6.20;1.40;;;13.20;52.20;;;;;;4900649;29;20488;-86
2022/02/25 10:53:35;;;;;;;6.30;2.03;;;12.70;54.10;;;;;;4905681;29;20471;-86
2022/02/25 10:56:06;;;;;;;5.30;2.30;;;13.20;56.00;;;;;;4917882;29;20451;-86
2022/02/25 10:58:39;;;;;;;8.50;3.60;;;14.40;54.90;;;;;;4910656;29;21015;-86
2022/02/25 11:01:06;;;;;;;4.23;2.30;;;14.50;54.00;;;;;;4900007;29;20893;-87
2022/02/25 11:03:34;;;;;;;7.70;2.13;;;16.10;51.40;;;;;;4907476;29;20465;-86
2022/02/25 11:06:01;;;;;;;5.93;2.50;;;15.20;49.20;;;;;;4918078;29;20434;-86
2022/02/25 11:08:27;;;;;;;6.13;2.07;;;14.40;50.40;;;;;;4936734;29;20451;-86
2022/02/25 11:10:57;;;;;;;3.33;1.20;;;13.60;50.80;;;;;;4919579;29;20490;-86
2022/02/25 11:13:24;;;;;;;3.47;1.63;;;12.80;52.20;;;;;;4911571;29;20977;-87
2022/02/25 11:15:54;;;;;;;6.50;1.43;;;12.50;52.90;;;;;;4917108;29;20475;-87
2022/02/25 11:18:21;;;;;;;3.70;1.70;;;12.40;53.40;;;;;;4902230;29;20454;-87
2022/02/25 11:20:49;;;;;;;19.50;4.10;;;12.20;54.20;;;;;;4899294;29;20451;-87
2022/02/25 11:23:17;;;;;;;4.10;1.80;;;12.10;55.50;;;;;;4899425;29;20783;-86
2022/02/25 11:25:45;;;;;;;3.27;1.90;;;11.90;55.10;;;;;;4918241;29;20471;-87
2022/02/25 11:28:13;;;;;;;4.90;2.67;;;12.50;55.00;;;;;;4929032;29;20432;-86
2022/02/25 11:30:45;;;;;;;6.27;2.57;;;12.60;53.00;;;;;;4914017;29;20480;-84
2022/02/25 11:33:16;;;;;;;9.27;4.57;;;13.20;52.50;;;;;;4906495;29;20483;-84
2022/02/25 11:35:50;;;;;;;6.17;2.27;;;12.80;52.20;;;;;;4900643;29;20475;-85
2022/02/25 11:38:17;;;;;;;7.00;2.40;;;12.50;53.40;;;;;;4925407;29;20473;-84
2022/02/25 11:40:57;;;;;;;3.67;1.53;;;13.30;53.10;;;;;;4920026;29;20455;-84
2022/02/25 11:43:35;;;;;;;3.60;1.40;;;14.70;51.40;;;;;;4916915;29;20472;-84
2022/02/25 11:46:02;;;;;;;2.83;1.87;;;16.60;48.50;;;;;;4928666;29;20468;-84
2022/02/25 11:48:39;;;;;;;5.17;2.43;;;19.20;46.80;;;;;;4918735;29;20965;-88
2022/02/25 11:51:09;;;;;;;3.30;1.30;;;19.50;43.00;;;;;;4918864;29;20490;-84
2022/02/25 11:53:36;;;;;;;5.43;1.73;;;20.00;43.20;;;;;;4914992;29;20546;-85
2022/02/25 11:56:19;;;;;;;6.30;2.70;;;21.00;41.50;;;;;;4916335;29;20461;-84
2022/02/25 11:58:47;;;;;;;2.83;2.20;;;21.00;40.00;;;;;;4903088;29;20467;-84
2022/02/25 12:01:16;;;;;;;6.03;1.67;;;20.30;39.50;;;;;;4904273;29;20448;-84
2022/02/25 12:04:07;;;;;;;3.97;1.50;;;20.50;39.40;;;;;;4923243;29;20462;-84
2022/02/25 12:07:03;;;;;;;3.60;1.60;;;21.00;38.30;;;;;;4915091;29;20487;-87
2022/02/25 12:09:45;;;;;;;4.90;1.93;;;22.40;37.90;;;;;;4917367;29;20463;-85
2022/02/25 12:12:37;;;;;;;7.70;4.40;;;23.00;36.60;;;;;;4920148;29;20504;-84
2022/02/25 12:15:07;;;;;;;7.80;2.63;;;22.30;34.60;;;;;;4907618;29;20474;-85
2022/02/25 12:17:45;;;;;;;7.00;3.50;;;20.40;35.90;;;;;;4932503;29;20439;-85
2022/02/25 12:20:18;;;;;;;11.90;4.83;;;19.70;38.40;;;;;;4914057;29;20454;-84
2022/02/25 12:22:54;;;;;;;9.13;6.30;;;18.90;37.80;;;;;;4899125;29;20538;-84
2022/02/25 12:25:47;;;;;;;10.00;6.03;;;17.90;39.70;;;;;;4900035;29;20554;-85
2022/02/25 12:28:41;;;;;;;10.50;3.63;;;16.90;41.60;;;;;;4917353;29;20514;-83
2022/02/25 12:31:09;;;;;;;4.03;2.53;;;16.10;42.40;;;;;;4914344;29;20519;-83
2022/02/25 12:33:39;;;;;;;4.93;1.57;;;15.90;42.90;;;;;;4907083;29;20466;-86
2022/02/25 12:36:13;;;;;;;4.70;1.90;;;16.40;43.00;;;;;;4903895;29;20455;-85
2022/02/25 12:38:41;;;;;;;5.20;2.30;;;17.70;42.00;;;;;;4914848;29;20911;-85
2022/02/25 12:41:16;;;;;;;6.73;3.07;;;18.50;40.70;;;;;;4914327;29;20511;-85
2022/02/25 12:43:47;;;;;;;4.70;2.77;;;18.80;41.60;;;;;;4918557;29;20454;-85
2022/02/25 12:46:15;;;;;;;6.13;2.67;;;17.70;40.70;;;;;;4903255;29;20458;-85
2022/02/25 12:48:42;;;;;;;4.20;2.13;;;15.30;42.40;;;;;;4908615;29;20485;-85
2022/02/25 12:51:10;;;;;;;4.00;2.00;;;14.90;45.40;;;;;;4910555;29;20484;-87
2022/02/25 12:53:50;;;;;;;4.87;2.13;;;14.50;47.00;;;;;;4911098;29;20453;-86
2022/02/25 12:56:20;;;;;;;5.80;2.23;;;13.50;46.60;;;;;;4914946;29;20474;-85
2022/02/25 12:59:01;;;;;;;3.40;1.77;;;12.50;49.00;;;;;;4964010;23;20511;-90
2022/02/25 13:01:29;;;;;;;4.83;2.07;;;11.80;50.10;;;;;;4968309;29;20458;-89
2022/02/25 13:04:00;;;;;;;6.27;1.60;;;11.10;52.00;;;;;;4949314;29;20445;-90
2022/02/25 13:06:30;;;;;;;4.60;2.77;;;10.80;53.60;;;;;;4962519;29;20474;-92
2022/02/25 13:08:59;;;;;;;6.10;3.10;;;11.10;54.30;;;;;;4968266;29;20467;-89
2022/02/25 13:11:27;;;;;;;4.67;2.80;;;11.60;54.30;;;;;;4961511;28;20496;-88
2022/02/25 13:14:10;;;;;;;5.50;3.30;;;11.60;53.60;;;;;;4946917;29;20447;-89
2022/02/25 13:16:37;;;;;;;6.67;2.00;;;11.60;54.50;;;;;;4966124;29;20459;-91
2022/02/25 13:19:20;;;;;;;7.80;2.10;;;11.30;53.50;;;;;;4960171;28;20581;-88
2022/02/25 13:22:00;;;;;;;8.77;2.67;;;11.10;54.40;;;;;;4956814;29;20458;-89
2022/02/25 13:24:27;;;;;;;12.60;5.50;;;11.70;55.00;;;;;;4948712;29;20478;-90
2022/02/25 13:26:58;;;;;;;9.63;4.70;;;13.10;53.60;;;;;;4942565;29;20548;-89
2022/02/25 13:29:27;;;;;;;5.57;1.93;;;12.80;51.20;;;;;;4941571;29;20446;-89
2022/02/25 13:31:58;;;;;;;5.77;2.97;;;12.60;52.40;;;;;;4941259;29;20480;-88
2022/02/25 13:34:26;;;;;;;4.83;1.83;;;13.10;52.70;;;;;;4940166;29;20453;-88
2022/02/25 13:36:58;;;;;;;5.70;2.00;;;14.80;50.90;;;;;;4969198;28;20459;-88